createdAt,value
2022-08-28T00:00:30.011Z,4.10
2022-08-28T00:03:06.847Z,4.00
2022-08-28T00:05:39.006Z,3.50
2022-08-28T00:08:07.925Z,3.90
2022-08-28T00:10:38.745Z,4.20
2022-08-28T00:13:08.870Z,4.00
2022-08-28T00:15:38.619Z,4.60
2022-08-28T00:18:07.273Z,4.30
2022-08-28T00:20:35.367Z,4.00
2022-08-28T00:23:02.620Z,3.90
2022-08-28T00:25:31.412Z,4.10
2022-08-28T00:28:05.461Z,3.80
2022-08-28T00:30:50.117Z,4.60
2022-08-28T00:33:29.626Z,3.80
2022-08-28T00:35:58.165Z,4.10
2022-08-28T00:38:26.831Z,3.80
2022-08-28T00:40:59.878Z,4.00
2022-08-28T00:43:41.687Z,4.10
2022-08-28T00:46:22.920Z,4.20
2022-08-28T00:48:50.640Z,5.30
2022-08-28T00:51:38.958Z,4.50
2022-08-28T00:54:08.169Z,4.50
2022-08-28T00:56:39.429Z,4.70
2022-08-28T00:59:17.282Z,4.40
2022-08-28T01:01:47.763Z,4.70
2022-08-28T01:04:19.756Z,4.50
2022-08-28T01:06:52.102Z,4.70
2022-08-28T01:09:22.269Z,4.90
2022-08-28T01:11:52.365Z,4.80
2022-08-28T01:14:26.307Z,4.40
2022-08-28T01:16:57.347Z,4.80
2022-08-28T01:19:46.404Z,5.10
2022-08-28T01:22:45.407Z,4.70
2022-08-28T01:25:18.604Z,5.40
2022-08-28T01:27:46.602Z,4.50
2022-08-28T01:30:19.554Z,4.50
2022-08-28T01:32:51.521Z,5.00
2022-08-28T01:35:25.425Z,4.40
2022-08-28T01:37:55.441Z,4.80
2022-08-28T01:40:36.594Z,4.80
2022-08-28T01:43:16.875Z,5.40
2022-08-28T01:45:51.568Z,4.20
2022-08-28T01:48:21.630Z,5.10
2022-08-28T01:50:49.596Z,5.00
2022-08-28T01:53:24.763Z,4.50
2022-08-28T01:55:55.252Z,5.50
2022-08-28T01:58:24.409Z,4.90
2022-08-28T02:00:55.185Z,5.00
2022-08-28T02:03:23.255Z,4.90
2022-08-28T02:05:51.018Z,4.60
2022-08-28T02:08:18.484Z,4.40
2022-08-28T02:10:46.445Z,4.40
2022-08-28T02:13:13.697Z,5.40
2022-08-28T02:15:42.730Z,4.60
2022-08-28T02:18:10.470Z,4.80
2022-08-28T02:20:38.013Z,4.80
2022-08-28T02:23:05.909Z,5.60
2022-08-28T02:25:33.238Z,5.30
2022-08-28T02:28:00.695Z,5.00
2022-08-28T02:30:28.261Z,5.90
2022-08-28T02:32:55.702Z,5.80
2022-08-28T02:35:23.861Z,5.60
2022-08-28T02:37:51.947Z,5.50
2022-08-28T02:40:23.911Z,5.20
2022-08-28T02:42:51.779Z,5.20
2022-08-28T02:45:20.498Z,6.00
2022-08-28T02:47:47.921Z,6.00
2022-08-28T02:50:18.429Z,5.30
2022-08-28T02:52:46.105Z,4.90
2022-08-28T02:55:17.043Z,5.40
2022-08-28T02:57:46.225Z,5.50
2022-08-28T03:02:45.965Z,5.40
2022-08-28T03:05:18.351Z,5.90
2022-08-28T03:07:45.604Z,5.40
2022-08-28T03:10:13.204Z,6.10
2022-08-28T03:12:40.886Z,5.30
2022-08-28T03:15:09.089Z,5.30
2022-08-28T03:17:36.795Z,5.60
2022-08-28T03:20:07.497Z,5.70
2022-08-28T03:22:53.376Z,5.30
2022-08-28T03:25:21.966Z,5.30
2022-08-28T03:27:49.366Z,5.40
2022-08-28T03:30:18.307Z,5.70
2022-08-28T03:35:13.132Z,5.60
2022-08-28T03:37:40.793Z,5.70
2022-08-28T03:40:09.704Z,5.20
2022-08-28T03:42:37.129Z,5.40
2022-08-28T03:45:08.998Z,5.70
2022-08-28T03:47:41.568Z,5.80
2022-08-28T03:50:11.618Z,5.20
2022-08-28T03:52:40.495Z,5.80
2022-08-28T03:55:11.299Z,6.00
2022-08-28T03:57:39.613Z,5.70
2022-08-28T04:00:11.805Z,4.90
2022-08-28T04:02:43.960Z,5.30
2022-08-28T04:07:40.059Z,5.30
2022-08-28T04:10:08.122Z,5.40
2022-08-28T04:12:36.616Z,4.90
2022-08-28T04:15:06.411Z,5.30
2022-08-28T04:17:37.890Z,5.20
2022-08-28T04:20:08.074Z,6.00
2022-08-28T04:22:36.780Z,5.40
2022-08-28T04:25:06.306Z,5.70
2022-08-28T04:27:33.657Z,5.50
2022-08-28T04:30:01.003Z,5.30
2022-08-28T04:32:28.584Z,5.50
2022-08-28T04:34:55.703Z,5.40
2022-08-28T04:37:22.885Z,6.30
2022-08-28T04:39:55.066Z,6.10
2022-08-28T04:42:22.370Z,6.00
2022-08-28T04:44:49.657Z,5.40
2022-08-28T04:47:16.878Z,5.20
2022-08-28T04:49:44.163Z,5.50
2022-08-28T04:52:11.499Z,5.60
2022-08-28T04:54:39.558Z,6.10
2022-08-28T04:57:07.046Z,5.20
2022-08-28T04:59:36.931Z,5.20
2022-08-28T05:02:05.321Z,5.50
2022-08-28T05:04:32.522Z,5.80
2022-08-28T05:06:59.942Z,5.60
2022-08-28T05:09:27.273Z,5.60
2022-08-28T05:11:54.610Z,5.50
2022-08-28T05:14:21.777Z,6.00
2022-08-28T05:16:52.662Z,5.50
2022-08-28T05:19:21.079Z,5.30
2022-08-28T05:21:48.347Z,6.10
2022-08-28T05:24:15.797Z,5.60
2022-08-28T05:26:43.165Z,5.00
2022-08-28T05:29:11.121Z,5.90
2022-08-28T05:31:40.929Z,5.40
2022-08-28T05:34:10.131Z,5.40
2022-08-28T05:36:38.845Z,5.80
2022-08-28T05:39:09.553Z,5.70
2022-08-28T05:41:39.055Z,5.70
2022-08-28T05:44:09.170Z,5.80
2022-08-28T05:46:39.181Z,5.60
2022-08-28T05:49:10.016Z,5.80
2022-08-28T05:51:41.887Z,5.80
2022-08-28T05:54:10.455Z,5.90
2022-08-28T05:56:40.205Z,5.40
2022-08-28T05:59:09.056Z,5.20
2022-08-28T06:01:42.329Z,6.30
2022-08-28T06:04:17.407Z,5.70
2022-08-28T06:06:45.732Z,5.70
2022-08-28T06:09:19.980Z,5.70
2022-08-28T06:11:48.400Z,5.50
2022-08-28T06:14:20.185Z,5.30
2022-08-28T06:16:54.438Z,5.60
2022-08-28T06:19:24.149Z,5.70
2022-08-28T06:21:56.711Z,5.70
2022-08-28T06:24:25.865Z,5.20
2022-08-28T06:26:58.050Z,5.10
2022-08-28T06:29:28.736Z,6.00
2022-08-28T06:32:00.678Z,5.10
2022-08-28T06:34:28.861Z,5.80
2022-08-28T06:36:56.217Z,6.00
2022-08-28T06:39:23.985Z,5.00
2022-08-28T06:41:51.231Z,6.00
2022-08-28T06:44:21.518Z,5.40
2022-08-28T06:46:52.430Z,5.40
2022-08-28T06:49:20.150Z,5.40
2022-08-28T06:51:48.121Z,5.50
2022-08-28T06:54:21.779Z,6.20
2022-08-28T06:56:52.129Z,5.70
2022-08-28T06:59:19.927Z,5.30
2022-08-28T07:01:48.047Z,5.60
2022-08-28T07:04:15.548Z,5.50
2022-08-28T07:06:53.028Z,5.40
2022-08-28T07:09:23.765Z,5.30
2022-08-28T07:11:51.334Z,5.60
2022-08-28T07:14:18.513Z,5.20
2022-08-28T07:16:45.654Z,5.70
2022-08-28T07:19:13.237Z,5.00
2022-08-28T07:21:44.125Z,5.30
2022-08-28T07:24:14.347Z,5.50
2022-08-28T07:26:43.365Z,5.60
2022-08-28T07:29:12.026Z,5.00
2022-08-28T07:34:11.598Z,5.40
2022-08-28T07:36:40.124Z,4.60
2022-08-28T07:39:08.810Z,4.80
2022-08-28T07:41:38.716Z,4.60
2022-08-28T07:44:26.359Z,4.60
2022-08-28T07:46:56.548Z,5.00
2022-08-28T07:49:24.749Z,4.80
2022-08-28T07:51:54.334Z,4.70
2022-08-28T07:54:23.233Z,5.30
2022-08-28T07:56:52.269Z,4.60
2022-08-28T07:59:20.065Z,4.70
2022-08-28T08:01:51.161Z,5.10
2022-08-28T08:04:20.741Z,4.80
2022-08-28T08:06:48.489Z,4.70
2022-08-28T08:09:18.943Z,4.30
2022-08-28T08:11:47.357Z,4.20
2022-08-28T08:14:17.126Z,4.60
2022-08-28T08:16:47.220Z,4.70
2022-08-28T08:19:16.115Z,4.30
2022-08-28T08:21:48.069Z,4.50
2022-08-28T08:24:20.380Z,4.20
2022-08-28T08:26:58.827Z,4.50
2022-08-28T08:29:35.365Z,4.20
2022-08-28T08:32:07.975Z,4.40
2022-08-28T08:34:40.065Z,4.70
2022-08-28T08:37:08.422Z,4.10
2022-08-28T08:39:37.181Z,4.50
2022-08-28T08:44:47.214Z,5.10
2022-08-28T08:47:21.957Z,4.30
2022-08-28T08:50:02.555Z,4.60
2022-08-28T08:52:45.756Z,4.50
2022-08-28T08:55:35.076Z,4.50
2022-08-28T08:58:10.914Z,4.20
2022-08-28T09:01:23.255Z,3.80
2022-08-28T09:04:09.786Z,5.00
2022-08-28T09:06:55.682Z,5.30
2022-08-28T09:09:41.383Z,4.70
2022-08-28T09:12:16.702Z,3.80
2022-08-28T09:15:12.331Z,4.70
2022-08-28T09:17:53.701Z,4.10
2022-08-28T09:20:32.722Z,4.00
2022-08-28T09:23:00.594Z,4.30
2022-08-28T09:28:40.571Z,4.30
2022-08-28T09:31:31.227Z,4.20
2022-08-28T09:34:23.838Z,3.90
2022-08-28T09:36:56.581Z,4.00
2022-08-28T09:39:33.579Z,3.80
2022-08-28T09:42:40.971Z,3.70
2022-08-28T09:45:20.882Z,3.80
2022-08-28T09:47:57.193Z,4.00
2022-08-28T09:50:36.317Z,3.80
2022-08-28T09:53:09.289Z,3.70
2022-08-28T09:55:49.868Z,3.80
2022-08-28T09:58:19.945Z,3.80
2022-08-28T10:01:20.966Z,3.30
2022-08-28T10:04:27.722Z,3.40
2022-08-28T10:07:17.688Z,3.40
2022-08-28T10:10:31.794Z,3.20
2022-08-28T10:13:35.140Z,3.70
2022-08-28T10:16:39.825Z,3.80
2022-08-28T10:19:33.426Z,3.50
2022-08-28T10:22:35.294Z,3.70
2022-08-28T10:25:21.904Z,2.80
2022-08-28T10:28:31.039Z,3.30
2022-08-28T10:31:26.895Z,3.70
2022-08-28T10:34:22.374Z,3.40
2022-08-28T10:37:21.165Z,3.50
2022-08-28T10:39:57.295Z,4.00
2022-08-28T10:42:40.553Z,3.80
2022-08-28T10:45:16.644Z,3.80
2022-08-28T10:47:54.297Z,3.10
2022-08-28T10:50:47.365Z,3.90
2022-08-28T10:53:38.193Z,4.20
2022-08-28T10:56:43.302Z,3.90
2022-08-28T10:59:11.733Z,3.60
2022-08-28T11:04:24.886Z,3.60
2022-08-28T11:07:01.013Z,3.70
2022-08-28T11:09:38.153Z,3.40
2022-08-28T11:12:19.347Z,3.60
2022-08-28T11:14:50.799Z,3.90
2022-08-28T11:17:30.044Z,4.00
2022-08-28T11:20:07.720Z,3.60
2022-08-28T11:22:45.918Z,4.10
2022-08-28T11:25:42.993Z,3.90
2022-08-28T11:28:27.132Z,3.80
2022-08-28T11:31:06.493Z,3.80
2022-08-28T11:33:49.424Z,4.00
2022-08-28T11:36:22.271Z,3.90
2022-08-28T11:38:52.806Z,3.80
2022-08-28T11:41:24.046Z,3.90
2022-08-28T11:44:13.408Z,4.00
2022-08-28T11:46:52.132Z,3.40
2022-08-28T11:52:22.582Z,3.70
2022-08-28T11:55:08.449Z,4.10
2022-08-28T12:01:02.983Z,3.70
2022-08-28T12:04:08.059Z,4.20
2022-08-28T12:06:51.657Z,3.70
2022-08-28T12:09:39.905Z,4.10
2022-08-28T12:15:28.273Z,3.80
2022-08-28T12:18:10.293Z,3.40
2022-08-28T12:20:53.283Z,3.40
2022-08-28T12:23:23.308Z,3.70
2022-08-28T12:26:03.872Z,3.40
2022-08-28T12:28:36.948Z,3.50
2022-08-28T12:31:04.262Z,3.50
2022-08-28T12:33:50.040Z,3.40
2022-08-28T12:36:26.109Z,3.30
2022-08-28T12:38:59.998Z,3.10
2022-08-28T12:41:27.830Z,3.40
2022-08-28T12:43:59.485Z,4.10
2022-08-28T12:46:35.759Z,3.50
2022-08-28T12:49:25.121Z,3.90
2022-08-28T12:52:30.868Z,3.70
2022-08-28T12:54:58.535Z,3.40
2022-08-28T12:57:25.784Z,3.40
2022-08-28T13:00:06.143Z,3.60
2022-08-28T13:02:34.391Z,3.60
2022-08-28T13:07:47.155Z,3.40
2022-08-28T13:10:47.468Z,3.50
2022-08-28T13:13:29.980Z,4.00
2022-08-28T13:16:02.252Z,3.40
2022-08-28T13:18:52.541Z,3.70
2022-08-28T13:21:33.060Z,3.50
2022-08-28T13:24:21.404Z,3.80
2022-08-28T13:27:11.856Z,3.50
2022-08-28T13:30:21.637Z,3.70
2022-08-28T13:33:21.681Z,3.90
2022-08-28T13:35:49.990Z,3.40
2022-08-28T13:40:58.337Z,3.80
2022-08-28T13:43:30.222Z,3.60
2022-08-28T13:45:57.516Z,3.30
2022-08-28T13:48:27.069Z,3.60
2022-08-28T13:51:08.610Z,3.20
2022-08-28T13:53:38.340Z,3.30
2022-08-28T13:56:05.596Z,3.50
2022-08-28T13:58:33.151Z,3.30
2022-08-28T14:01:00.614Z,2.70
2022-08-28T14:03:40.820Z,2.80
2022-08-28T14:06:18.158Z,2.90
2022-08-28T14:08:46.420Z,3.00
2022-08-28T14:13:47.100Z,3.10
2022-08-28T14:16:25.734Z,2.90
2022-08-28T14:18:53.858Z,3.00
2022-08-28T14:23:49.079Z,3.00
2022-08-28T14:26:16.346Z,2.90
2022-08-28T14:28:43.514Z,3.00
2022-08-28T14:31:14.412Z,2.90
2022-08-28T14:33:45.193Z,3.00
2022-08-28T14:36:26.500Z,2.80
2022-08-28T14:38:56.452Z,3.10
2022-08-28T14:41:24.843Z,3.60
2022-08-28T14:46:32.153Z,3.10
2022-08-28T14:49:04.837Z,3.50
2022-08-28T14:51:35.315Z,3.20
2022-08-28T14:54:04.390Z,3.10
2022-08-28T14:56:32.273Z,3.10
2022-08-28T14:59:01.507Z,3.20
2022-08-28T15:01:40.212Z,3.40
2022-08-28T15:04:14.643Z,3.40
2022-08-28T15:06:43.561Z,3.30
2022-08-28T15:09:13.125Z,2.90
2022-08-28T15:11:41.804Z,2.90
2022-08-28T15:14:10.317Z,3.20
2022-08-28T15:16:42.741Z,2.90
2022-08-28T15:19:11.880Z,3.60
2022-08-28T15:21:49.173Z,3.60
2022-08-28T15:24:19.574Z,3.50
2022-08-28T15:26:46.734Z,3.30
2022-08-28T15:29:14.506Z,3.30
2022-08-28T15:31:45.682Z,2.80
2022-08-28T15:34:22.001Z,2.90
2022-08-28T15:36:54.693Z,3.30
2022-08-28T15:39:44.366Z,3.30
2022-08-28T15:42:12.148Z,3.20
2022-08-28T15:44:39.942Z,3.20
2022-08-28T15:47:08.079Z,3.20
2022-08-28T15:49:43.416Z,3.70
2022-08-28T15:52:14.973Z,3.60
2022-08-28T15:54:42.400Z,3.00
2022-08-28T15:57:09.741Z,3.80
2022-08-28T15:59:48.769Z,3.20
2022-08-28T16:02:21.629Z,3.90
2022-08-28T16:04:49.776Z,3.30
2022-08-28T16:07:19.152Z,3.00
2022-08-28T16:09:47.241Z,3.20
2022-08-28T16:12:15.189Z,3.80
2022-08-28T16:14:42.865Z,3.40
2022-08-28T16:17:11.317Z,3.10
2022-08-28T16:22:09.023Z,3.10
2022-08-28T16:24:36.634Z,3.50
2022-08-28T16:27:04.687Z,3.40
2022-08-28T16:29:35.482Z,3.40
2022-08-28T16:32:05.439Z,3.10
2022-08-28T16:37:01.300Z,3.00
2022-08-28T16:39:28.577Z,3.40
2022-08-28T16:41:56.056Z,3.30
2022-08-28T16:44:25.741Z,3.40
2022-08-28T16:46:54.385Z,3.50
2022-08-28T16:51:50.316Z,3.80
2022-08-28T16:54:17.999Z,3.60
2022-08-28T16:56:46.249Z,3.50
2022-08-28T16:59:17.479Z,3.80
2022-08-28T17:01:45.304Z,3.50
2022-08-28T17:04:20.708Z,3.60
2022-08-28T17:06:48.133Z,3.60
2022-08-28T17:09:15.693Z,3.30
2022-08-28T17:11:42.974Z,3.90
2022-08-28T17:14:11.559Z,3.70
2022-08-28T17:16:39.180Z,3.60
2022-08-28T17:19:06.543Z,3.30
2022-08-28T17:21:52.178Z,3.60
2022-08-28T17:24:19.699Z,3.50
2022-08-28T17:26:47.142Z,3.20
2022-08-28T17:29:15.315Z,3.50
2022-08-28T17:31:42.627Z,3.40
2022-08-28T17:34:10.373Z,3.30
2022-08-28T17:36:40.552Z,3.50
2022-08-28T17:39:16.907Z,3.70
2022-08-28T17:41:44.340Z,3.70
2022-08-28T17:44:13.263Z,3.20
2022-08-28T17:46:40.776Z,3.80
2022-08-28T17:49:09.816Z,3.30
2022-08-28T17:54:13.963Z,3.90
2022-08-28T17:56:41.922Z,3.70
2022-08-28T17:59:11.044Z,3.30
2022-08-28T18:01:39.397Z,3.50
2022-08-28T18:04:07.458Z,3.20
2022-08-28T18:06:34.813Z,3.40
2022-08-28T18:09:03.836Z,3.50
2022-08-28T18:11:31.085Z,3.50
2022-08-28T18:13:59.430Z,3.40
2022-08-28T18:16:31.342Z,3.30
2022-08-28T18:19:00.605Z,4.00
2022-08-28T18:21:29.388Z,3.60
2022-08-28T18:26:24.599Z,3.50
2022-08-28T18:28:52.224Z,4.50
2022-08-28T18:31:20.763Z,3.30
2022-08-28T18:33:51.994Z,3.30
2022-08-28T18:36:18.731Z,3.60
2022-08-28T18:38:46.905Z,3.50
2022-08-28T18:41:14.806Z,3.50
2022-08-28T18:43:41.884Z,3.30
2022-08-28T18:46:09.593Z,3.50
2022-08-28T18:48:37.633Z,3.40
2022-08-28T18:51:07.298Z,3.60
2022-08-28T18:53:35.634Z,3.90
2022-08-28T18:56:03.903Z,4.10
2022-08-28T18:58:32.133Z,3.50
2022-08-28T19:01:01.935Z,3.90
2022-08-28T19:03:30.266Z,3.70
2022-08-28T19:05:57.729Z,3.30
2022-08-28T19:08:25.793Z,4.10
2022-08-28T19:10:54.104Z,3.50
2022-08-28T19:13:21.583Z,3.40
2022-08-28T19:15:52.258Z,3.70
2022-08-28T19:18:20.383Z,3.40
2022-08-28T19:20:47.908Z,3.70
2022-08-28T19:23:17.838Z,3.80
2022-08-28T19:25:45.936Z,4.30
2022-08-28T19:28:13.399Z,3.70
2022-08-28T19:30:41.109Z,3.70
2022-08-28T19:33:12.730Z,3.80
2022-08-28T19:35:40.321Z,3.60
2022-08-28T19:38:07.471Z,3.60
2022-08-28T19:40:34.654Z,3.60
2022-08-28T19:43:01.868Z,3.90
2022-08-28T19:45:29.845Z,3.80
2022-08-28T19:47:58.588Z,4.00
2022-08-28T19:52:53.748Z,3.50
2022-08-28T19:55:26.837Z,3.40
2022-08-28T19:57:54.785Z,4.10
2022-08-28T20:00:31.478Z,3.80
2022-08-28T20:02:59.372Z,4.30
2022-08-28T20:05:26.702Z,3.80
2022-08-28T20:07:53.848Z,4.00
2022-08-28T20:10:20.961Z,4.60
2022-08-28T20:12:48.800Z,4.30
2022-08-28T20:15:18.902Z,4.30
2022-08-28T20:17:49.770Z,4.50
2022-08-28T20:20:21.366Z,4.40
2022-08-28T20:22:48.625Z,4.60
2022-08-28T20:25:21.853Z,4.20
2022-08-28T20:27:49.475Z,4.20
2022-08-28T20:30:17.423Z,4.40
2022-08-28T20:32:45.133Z,4.20
2022-08-28T20:35:13.925Z,4.20
2022-08-28T20:37:45.123Z,4.20
2022-08-28T20:40:17.761Z,4.10
2022-08-28T20:42:45.685Z,4.30
2022-08-28T20:45:14.658Z,4.10
2022-08-28T20:47:42.418Z,4.20
2022-08-28T20:50:10.318Z,4.00
2022-08-28T20:52:38.686Z,3.80
2022-08-28T20:55:07.940Z,3.60
2022-08-28T20:57:35.957Z,4.00
2022-08-28T21:00:08.673Z,4.60
2022-08-28T21:02:36.705Z,4.00
2022-08-28T21:05:05.188Z,4.00
2022-08-28T21:07:34.491Z,4.00
2022-08-28T21:10:06.746Z,4.10
2022-08-28T21:12:37.380Z,4.90
2022-08-28T21:15:08.158Z,4.60
2022-08-28T21:17:35.776Z,4.90
2022-08-28T21:20:10.174Z,5.10
2022-08-28T21:22:38.536Z,4.90
2022-08-28T21:25:08.837Z,4.80
2022-08-28T21:27:37.761Z,5.50
2022-08-28T21:30:07.813Z,5.30
2022-08-28T21:32:35.676Z,5.20
2022-08-28T21:35:05.790Z,5.10
2022-08-28T21:37:33.666Z,4.70
2022-08-28T21:40:02.002Z,4.60
2022-08-28T21:42:29.394Z,5.90
2022-08-28T21:44:56.510Z,4.90
2022-08-28T21:47:24.407Z,4.50
2022-08-28T21:49:55.261Z,4.70
2022-08-28T21:52:27.102Z,4.80
2022-08-28T21:55:07.838Z,4.50
2022-08-28T21:57:35.432Z,5.20
2022-08-28T22:00:11.588Z,4.70
2022-08-28T22:02:39.253Z,4.80
2022-08-28T22:05:07.724Z,4.60
2022-08-28T22:07:35.707Z,4.60
2022-08-28T22:10:04.677Z,5.00
2022-08-28T22:12:32.902Z,4.80
2022-08-28T22:15:00.617Z,4.60
2022-08-28T22:17:29.210Z,5.30
2022-08-28T22:19:56.362Z,4.60
2022-08-28T22:22:42.465Z,5.10
2022-08-28T22:25:09.919Z,5.00
2022-08-28T22:27:37.165Z,4.90
2022-08-28T22:30:05.568Z,4.60
2022-08-28T22:32:33.030Z,4.80
2022-08-28T22:35:00.566Z,4.40
2022-08-28T22:37:27.710Z,4.70
2022-08-28T22:39:54.899Z,5.20
2022-08-28T22:42:22.717Z,4.60
2022-08-28T22:44:50.025Z,4.70
2022-08-28T22:47:19.012Z,4.80
2022-08-28T22:52:15.116Z,4.40
2022-08-28T22:54:43.699Z,4.60
2022-08-28T22:57:11.463Z,4.30
2022-08-28T22:59:38.920Z,4.40
2022-08-28T23:02:06.172Z,4.30
2022-08-28T23:04:35.497Z,3.90
2022-08-28T23:07:02.723Z,4.20
2022-08-28T23:09:29.897Z,4.70
2022-08-28T23:12:00.023Z,4.50
2022-08-28T23:14:27.451Z,4.70
2022-08-28T23:16:55.649Z,4.10
2022-08-28T23:19:24.673Z,4.30
2022-08-28T23:21:53.193Z,4.90
2022-08-28T23:24:20.483Z,4.60
2022-08-28T23:26:48.549Z,4.80
2022-08-28T23:29:16.267Z,4.60
2022-08-28T23:31:43.492Z,5.10
2022-08-28T23:34:11.002Z,4.80
2022-08-28T23:36:39.546Z,5.40
2022-08-28T23:39:10.639Z,5.10
2022-08-28T23:41:38.279Z,4.80
2022-08-28T23:44:09.040Z,5.10
2022-08-28T23:46:37.064Z,4.60
2022-08-28T23:49:10.987Z,5.20
2022-08-28T23:51:39.356Z,4.90
2022-08-28T23:54:08.639Z,4.70
2022-08-28T23:56:36.838Z,4.50
2022-08-28T23:59:06.023Z,4.70
